createdAt,value
2022-09-14T00:01:39.752Z,15.23
2022-09-14T00:04:22.313Z,15.19
2022-09-14T00:07:05.166Z,15.46
2022-09-14T00:09:42.214Z,15.35
2022-09-14T00:12:10.290Z,15.17
2022-09-14T00:14:51.090Z,15.17
2022-09-14T00:17:35.369Z,15.09
2022-09-14T00:20:05.955Z,14.93
2022-09-14T00:22:44.822Z,14.73
2022-09-14T00:25:25.698Z,14.66
2022-09-14T00:27:57.204Z,14.55
2022-09-14T00:30:29.870Z,14.49
2022-09-14T00:33:03.639Z,14.62
2022-09-14T00:35:49.991Z,14.72
2022-09-14T00:38:27.497Z,14.87
2022-09-14T00:41:04.665Z,14.95
2022-09-14T00:43:58.910Z,14.87
2022-09-14T00:46:32.141Z,14.91
2022-09-14T00:49:08.188Z,14.62
2022-09-14T00:51:48.134Z,14.36
2022-09-14T00:54:22.743Z,14.16
2022-09-14T00:57:02.579Z,14.07
2022-09-14T00:59:33.571Z,13.82
2022-09-14T01:02:08.159Z,13.80
2022-09-14T01:04:44.046Z,13.83
2022-09-14T01:07:36.072Z,13.95
2022-09-14T01:10:27.427Z,13.97
2022-09-14T01:13:15.743Z,14.01
2022-09-14T01:15:55.861Z,14.30
2022-09-14T01:18:30.712Z,14.24
2022-09-14T01:21:02.904Z,14.25
2022-09-14T01:23:48.340Z,14.35
2022-09-14T01:26:44.523Z,14.47
2022-09-14T01:29:24.802Z,14.41
2022-09-14T01:31:56.770Z,13.98
2022-09-14T01:34:40.187Z,14.15
2022-09-14T01:37:13.470Z,14.19
2022-09-14T01:40:02.122Z,14.46
2022-09-14T01:42:32.941Z,14.32
2022-09-14T01:45:29.730Z,14.31
2022-09-14T01:48:16.414Z,14.27
2022-09-14T01:51:07.167Z,14.22
2022-09-14T01:53:44.110Z,14.21
2022-09-14T01:56:39.468Z,14.11
2022-09-14T01:59:11.349Z,14.10
2022-09-14T02:01:50.873Z,14.06
2022-09-14T02:04:26.459Z,14.33
2022-09-14T02:06:56.529Z,13.94
2022-09-14T02:09:41.077Z,13.93
2022-09-14T02:12:09.405Z,13.85
2022-09-14T02:15:47.970Z,13.83
2022-09-14T02:18:25.935Z,13.95
2022-09-14T02:21:26.776Z,13.66
2022-09-14T02:24:09.370Z,13.52
2022-09-14T02:26:37.836Z,13.67
2022-09-14T02:29:06.961Z,13.64
2022-09-14T02:31:53.195Z,13.70
2022-09-14T02:34:48.384Z,13.67
2022-09-14T02:37:42.354Z,13.61
2022-09-14T02:40:22.724Z,13.64
2022-09-14T02:43:13.868Z,13.59
2022-09-14T02:46:18.308Z,13.69
2022-09-14T02:49:04.663Z,13.59
2022-09-14T02:51:58.894Z,13.68
2022-09-14T02:55:07.611Z,13.80
2022-09-14T02:58:17.977Z,13.77
2022-09-14T03:00:50.834Z,13.78
2022-09-14T03:06:56.310Z,13.80
2022-09-14T03:09:30.378Z,13.64
2022-09-14T03:12:03.296Z,13.73
2022-09-14T03:14:31.703Z,13.51
2022-09-14T03:17:34.286Z,13.62
2022-09-14T03:20:04.686Z,13.26
2022-09-14T03:22:39.712Z,13.39
2022-09-14T03:25:32.985Z,13.47
2022-09-14T03:28:07.052Z,13.50
2022-09-14T03:30:46.495Z,13.37
2022-09-14T03:33:56.566Z,13.25
2022-09-14T03:36:29.177Z,13.60
2022-09-14T03:39:28.404Z,13.50
2022-09-14T03:42:05.952Z,13.57
2022-09-14T03:44:39.835Z,13.30
2022-09-14T03:47:10.965Z,13.30
2022-09-14T03:49:53.535Z,13.20
2022-09-14T03:52:46.909Z,12.91
2022-09-14T03:55:22.264Z,12.75
2022-09-14T03:58:03.961Z,12.76
2022-09-14T04:00:46.526Z,12.63
2022-09-14T04:06:13.146Z,12.56
2022-09-14T04:08:51.452Z,12.53
2022-09-14T04:11:41.770Z,12.50
2022-09-14T04:14:22.636Z,12.60
2022-09-14T04:17:11.194Z,12.69
2022-09-14T04:19:41.175Z,12.85
2022-09-14T04:22:12.805Z,12.97
2022-09-14T04:24:46.586Z,12.92
2022-09-14T04:27:25.748Z,13.04
2022-09-14T04:29:55.510Z,13.13
2022-09-14T04:32:24.196Z,13.10
2022-09-14T04:34:52.239Z,13.02
2022-09-14T04:40:31.006Z,13.22
2022-09-14T04:43:14.122Z,13.29
2022-09-14T04:46:03.408Z,13.23
2022-09-14T04:48:37.983Z,13.26
2022-09-14T04:51:12.165Z,13.39
2022-09-14T04:53:53.903Z,13.49
2022-09-14T04:56:23.199Z,13.74
2022-09-14T04:58:54.919Z,13.68
2022-09-14T05:01:30.246Z,13.49
2022-09-14T05:04:02.792Z,13.40
2022-09-14T05:06:41.733Z,13.54
2022-09-14T05:09:18.631Z,13.58
2022-09-14T05:11:52.720Z,13.54
2022-09-14T05:14:54.182Z,13.60
2022-09-14T05:17:29.630Z,13.62
2022-09-14T05:19:57.802Z,13.56
2022-09-14T05:22:31.606Z,13.66
2022-09-14T05:25:04.656Z,13.72
2022-09-14T05:27:40.906Z,13.71
2022-09-14T05:30:17.703Z,13.68
2022-09-14T05:32:50.033Z,13.71
2022-09-14T05:35:20.805Z,13.59
2022-09-14T05:38:01.131Z,13.80
2022-09-14T05:40:31.294Z,13.79
2022-09-14T05:43:02.380Z,13.87
2022-09-14T05:45:35.231Z,13.86
2022-09-14T05:48:04.982Z,13.93
2022-09-14T05:50:37.884Z,14.02
2022-09-14T05:53:06.143Z,14.06
2022-09-14T05:55:34.212Z,13.86
2022-09-14T05:58:21.148Z,13.73
2022-09-14T06:01:06.821Z,13.89
2022-09-14T06:03:37.261Z,14.01
2022-09-14T06:06:06.494Z,13.89
2022-09-14T06:08:35.228Z,13.95
2022-09-14T06:11:06.868Z,13.95
2022-09-14T06:13:35.739Z,13.92
2022-09-14T06:16:20.239Z,14.11
2022-09-14T06:18:56.533Z,14.00
2022-09-14T06:21:25.110Z,14.26
2022-09-14T06:23:53.203Z,14.08
2022-09-14T06:26:21.812Z,14.29
2022-09-14T06:28:50.638Z,14.40
2022-09-14T06:31:22.683Z,14.38
2022-09-14T06:33:53.042Z,14.42
2022-09-14T06:36:24.311Z,14.60
2022-09-14T06:38:56.672Z,14.60
2022-09-14T06:41:29.310Z,14.72
2022-09-14T06:44:02.379Z,14.72
2022-09-14T06:46:33.357Z,14.74
2022-09-14T06:49:05.480Z,14.69
2022-09-14T06:51:35.947Z,14.59
2022-09-14T06:54:05.560Z,14.72
2022-09-14T06:56:35.276Z,14.75
2022-09-14T06:59:03.993Z,14.73
2022-09-14T07:01:33.943Z,14.80
2022-09-14T07:04:10.734Z,14.82
2022-09-14T07:06:42.115Z,15.04
2022-09-14T07:09:11.602Z,15.14
2022-09-14T07:11:40.249Z,15.29
2022-09-14T07:14:08.906Z,15.37
2022-09-14T07:16:39.922Z,15.37
2022-09-14T07:19:13.580Z,15.31
2022-09-14T07:21:42.294Z,15.23
2022-09-14T07:24:10.479Z,15.37
2022-09-14T07:26:47.385Z,15.36
2022-09-14T07:29:17.661Z,15.29
2022-09-14T07:31:48.370Z,15.44
2022-09-14T07:34:17.004Z,15.37
2022-09-14T07:36:54.504Z,15.42
2022-09-14T07:39:22.575Z,15.46
2022-09-14T07:42:00.722Z,15.53
2022-09-14T07:44:29.205Z,15.47
2022-09-14T07:46:58.739Z,15.61
2022-09-14T07:49:27.051Z,15.63
2022-09-14T07:51:55.207Z,15.78
2022-09-14T07:54:23.657Z,15.75
2022-09-14T07:56:51.637Z,15.94
2022-09-14T07:59:36.860Z,16.12
2022-09-14T08:02:08.225Z,16.21
2022-09-14T08:04:37.929Z,16.38
2022-09-14T08:07:06.433Z,16.49
2022-09-14T08:09:34.630Z,16.68
2022-09-14T08:12:03.310Z,16.83
2022-09-14T08:14:33.915Z,16.93
2022-09-14T08:17:02.472Z,17.11
2022-09-14T08:19:32.043Z,17.01
2022-09-14T08:22:03.341Z,17.00
2022-09-14T08:24:32.316Z,17.32
2022-09-14T08:27:00.532Z,17.33
2022-09-14T08:29:28.607Z,17.38
2022-09-14T08:32:01.276Z,17.45
2022-09-14T08:34:33.493Z,17.42
2022-09-14T08:37:01.461Z,17.70
2022-09-14T08:39:41.260Z,17.63
2022-09-14T08:42:17.914Z,17.55
2022-09-14T08:44:50.372Z,17.69
2022-09-14T08:47:20.569Z,17.89
2022-09-14T08:49:59.046Z,17.82
2022-09-14T08:52:29.447Z,17.66
2022-09-14T08:54:59.983Z,17.94
2022-09-14T08:57:37.940Z,17.88
2022-09-14T09:00:10.961Z,18.06
2022-09-14T09:03:08.854Z,18.26
2022-09-14T09:05:43.336Z,18.06
2022-09-14T09:08:21.818Z,18.02
2022-09-14T09:11:01.480Z,17.90
2022-09-14T09:13:41.761Z,17.78
2022-09-14T09:16:13.891Z,17.75
2022-09-14T09:18:44.118Z,17.98
2022-09-14T09:21:18.275Z,17.97
2022-09-14T09:23:47.381Z,17.89
2022-09-14T09:26:26.836Z,17.72
2022-09-14T09:28:56.309Z,17.85
2022-09-14T09:31:36.863Z,17.80
2022-09-14T09:34:09.318Z,17.98
2022-09-14T09:36:40.840Z,18.05
2022-09-14T09:39:12.387Z,18.27
2022-09-14T09:41:49.698Z,18.29
2022-09-14T09:44:23.021Z,18.43
2022-09-14T09:46:53.195Z,18.23
2022-09-14T09:49:24.433Z,18.23
2022-09-14T09:51:54.723Z,18.48
2022-09-14T09:54:26.524Z,18.65
2022-09-14T09:56:58.751Z,18.74
2022-09-14T09:59:41.069Z,19.03
2022-09-14T10:02:24.218Z,18.95
2022-09-14T10:05:01.592Z,19.02
2022-09-14T10:07:32.722Z,19.08
2022-09-14T10:10:04.711Z,19.05
2022-09-14T10:12:50.669Z,19.23
2022-09-14T10:15:28.800Z,18.98
2022-09-14T10:18:06.313Z,19.05
2022-09-14T10:20:36.426Z,19.78
2022-09-14T10:23:36.436Z,20.07
2022-09-14T10:26:26.788Z,19.55
2022-09-14T10:28:55.181Z,19.19
2022-09-14T10:31:31.437Z,19.31
2022-09-14T10:34:01.695Z,19.19
2022-09-14T10:36:31.786Z,18.77
2022-09-14T10:39:05.749Z,18.92
2022-09-14T10:41:41.051Z,18.61
2022-09-14T10:44:23.613Z,18.48
2022-09-14T10:47:06.484Z,18.30
2022-09-14T10:49:43.677Z,18.75
2022-09-14T10:52:18.225Z,18.46
2022-09-14T10:55:14.888Z,18.39
2022-09-14T10:57:49.946Z,18.69
2022-09-14T11:00:19.900Z,18.41
2022-09-14T11:03:03.577Z,17.91
2022-09-14T11:05:32.905Z,17.74
2022-09-14T11:08:11.065Z,18.07
2022-09-14T11:10:51.093Z,18.07
2022-09-14T11:13:43.102Z,18.25
2022-09-14T11:16:21.522Z,17.97
2022-09-14T11:18:58.318Z,18.50
2022-09-14T11:21:35.069Z,18.09
2022-09-14T11:24:14.194Z,18.27
2022-09-14T11:26:47.796Z,18.27
2022-09-14T11:29:26.683Z,18.15
2022-09-14T11:32:19.404Z,18.47
2022-09-14T11:34:54.779Z,18.57
2022-09-14T11:37:28.395Z,18.65
2022-09-14T11:40:05.129Z,18.79
2022-09-14T11:42:37.216Z,18.81
2022-09-14T11:45:11.465Z,18.56
2022-09-14T11:47:45.717Z,18.63
2022-09-14T11:50:20.545Z,18.95
2022-09-14T11:52:50.349Z,18.85
2022-09-14T11:55:19.743Z,18.63
2022-09-14T11:57:50.228Z,18.82
2022-09-14T12:00:48.488Z,19.24
2022-09-14T12:03:19.389Z,19.38
2022-09-14T12:05:48.462Z,19.56
2022-09-14T12:08:38.495Z,19.40
2022-09-14T12:11:29.829Z,19.24
2022-09-14T12:14:33.983Z,19.61
2022-09-14T12:17:22.768Z,19.74
2022-09-14T12:19:58.622Z,19.76
2022-09-14T12:22:31.650Z,19.84
2022-09-14T12:25:04.268Z,19.56
2022-09-14T12:27:33.713Z,18.82
2022-09-14T12:30:03.174Z,19.14
2022-09-14T12:32:42.274Z,18.83
2022-09-14T12:35:37.874Z,19.41
2022-09-14T12:38:39.280Z,19.18
2022-09-14T12:42:08.707Z,19.53
2022-09-14T12:44:39.433Z,19.36
2022-09-14T12:47:49.481Z,19.27
2022-09-14T12:50:18.650Z,19.30
2022-09-14T12:52:59.726Z,19.38
2022-09-14T12:55:45.197Z,19.54
2022-09-14T12:58:24.761Z,19.64
2022-09-14T13:01:00.650Z,19.96
2022-09-14T13:03:52.192Z,19.01
2022-09-14T13:06:20.905Z,19.52
2022-09-14T13:08:50.550Z,19.79
2022-09-14T13:11:23.995Z,19.98
2022-09-14T13:13:52.530Z,19.66
2022-09-14T13:16:28.858Z,19.05
2022-09-14T13:19:10.178Z,19.41
2022-09-14T13:21:48.731Z,18.92
2022-09-14T13:24:37.420Z,19.08
2022-09-14T13:27:06.161Z,19.33
2022-09-14T13:29:34.291Z,19.67
2022-09-14T13:32:04.212Z,19.51
2022-09-14T13:34:36.436Z,19.15
2022-09-14T13:37:06.289Z,19.24
2022-09-14T13:39:38.070Z,19.00
2022-09-14T13:42:06.518Z,19.06
2022-09-14T13:44:42.069Z,18.89
2022-09-14T13:47:13.406Z,18.98
2022-09-14T13:49:43.580Z,19.27
2022-09-14T13:52:43.603Z,19.03
2022-09-14T13:55:24.324Z,18.90
2022-09-14T13:58:16.270Z,19.35
2022-09-14T14:00:58.095Z,19.09
2022-09-14T14:03:29.750Z,19.15
2022-09-14T14:05:59.804Z,19.81
2022-09-14T14:08:34.839Z,19.76
2022-09-14T14:11:10.152Z,19.59
2022-09-14T14:13:44.259Z,19.44
2022-09-14T14:16:18.270Z,19.51
2022-09-14T14:18:55.583Z,19.42
2022-09-14T14:21:31.091Z,19.67
2022-09-14T14:24:27.655Z,19.61
2022-09-14T14:26:57.327Z,19.19
2022-09-14T14:29:27.083Z,18.93
2022-09-14T14:31:56.461Z,19.39
2022-09-14T14:34:27.195Z,19.46
2022-09-14T14:36:57.619Z,19.43
2022-09-14T14:39:26.588Z,19.58
2022-09-14T14:41:55.114Z,19.20
2022-09-14T14:44:25.404Z,19.32
2022-09-14T14:46:53.482Z,19.91
2022-09-14T14:49:22.224Z,19.18
2022-09-14T14:51:50.734Z,19.76
2022-09-14T14:54:21.836Z,19.72
2022-09-14T14:56:52.960Z,19.68
2022-09-14T14:59:29.652Z,18.94
2022-09-14T15:01:58.355Z,19.88
2022-09-14T15:04:26.746Z,20.00
2022-09-14T15:07:01.153Z,19.54
2022-09-14T15:09:38.962Z,20.03
2022-09-14T15:12:07.549Z,19.96
2022-09-14T15:14:35.521Z,20.34
2022-09-14T15:17:03.818Z,20.16
2022-09-14T15:19:33.933Z,19.69
2022-09-14T15:22:02.145Z,20.23
2022-09-14T15:24:33.210Z,20.76
2022-09-14T15:27:03.267Z,21.06
2022-09-14T15:29:31.501Z,21.47
2022-09-14T15:31:59.625Z,21.08
2022-09-14T15:34:29.195Z,20.59
2022-09-14T15:36:58.989Z,19.76
2022-09-14T15:39:29.403Z,19.45
2022-09-14T15:41:57.605Z,19.34
2022-09-14T15:44:27.156Z,19.99
2022-09-14T15:46:57.181Z,19.85
2022-09-14T15:49:27.340Z,20.02
2022-09-14T15:51:57.922Z,20.70
2022-09-14T15:54:28.433Z,20.74
2022-09-14T15:56:59.502Z,21.42
2022-09-14T15:59:29.785Z,21.50
2022-09-14T16:01:58.074Z,20.57
2022-09-14T16:04:26.180Z,20.50
2022-09-14T16:06:54.172Z,19.63
2022-09-14T16:09:22.639Z,20.20
2022-09-14T16:11:50.860Z,20.04
2022-09-14T16:14:18.843Z,20.09
2022-09-14T16:16:48.497Z,20.30
2022-09-14T16:19:16.936Z,20.99
2022-09-14T16:21:46.920Z,21.46
2022-09-14T16:24:18.200Z,21.59
2022-09-14T16:26:46.554Z,21.16
2022-09-14T16:29:17.575Z,20.95
2022-09-14T16:31:48.735Z,20.61
2022-09-14T16:34:19.906Z,20.13
2022-09-14T16:36:48.825Z,19.43
2022-09-14T16:39:18.164Z,19.73
2022-09-14T16:41:46.775Z,19.65
2022-09-14T16:44:16.451Z,19.55
2022-09-14T16:46:44.999Z,19.44
2022-09-14T16:49:14.354Z,19.41
2022-09-14T16:51:42.363Z,18.96
2022-09-14T16:54:11.710Z,18.70
2022-09-14T16:56:39.641Z,18.30
2022-09-14T16:59:08.642Z,18.43
2022-09-14T17:01:38.442Z,18.53
2022-09-14T17:04:09.666Z,18.57
2022-09-14T17:06:41.114Z,18.17
2022-09-14T17:09:11.369Z,18.57
2022-09-14T17:11:40.690Z,18.57
2022-09-14T17:14:09.245Z,18.51
2022-09-14T17:16:37.690Z,18.46
2022-09-14T17:19:06.267Z,18.71
2022-09-14T17:21:37.100Z,18.52
2022-09-14T17:24:07.794Z,18.38
2022-09-14T17:26:36.497Z,18.29
2022-09-14T17:29:05.258Z,18.35
2022-09-14T17:31:35.141Z,18.33
2022-09-14T17:34:04.975Z,18.28
2022-09-14T17:36:33.877Z,17.89
2022-09-14T17:39:10.646Z,17.54
2022-09-14T17:41:42.926Z,17.80
2022-09-14T17:44:13.009Z,17.63
2022-09-14T17:46:52.060Z,17.58
2022-09-14T17:49:25.169Z,17.67
2022-09-14T17:51:54.984Z,17.23
2022-09-14T17:54:23.411Z,16.90
2022-09-14T17:56:53.983Z,16.80
2022-09-14T17:59:22.564Z,16.52
2022-09-14T18:01:51.633Z,16.53
2022-09-14T18:04:19.886Z,16.53
2022-09-14T18:06:49.344Z,16.61
2022-09-14T18:09:18.942Z,16.56
2022-09-14T18:11:49.208Z,16.09
2022-09-14T18:14:20.687Z,15.91
2022-09-14T18:16:48.897Z,15.80
2022-09-14T18:19:17.605Z,15.80
2022-09-14T18:21:51.551Z,16.02
2022-09-14T18:24:20.608Z,16.14
2022-09-14T18:26:48.863Z,15.99
2022-09-14T18:29:21.318Z,16.06
2022-09-14T18:31:49.622Z,16.53
2022-09-14T18:34:18.314Z,16.35
2022-09-14T18:36:46.508Z,16.57
2022-09-14T18:39:15.011Z,16.88
2022-09-14T18:41:43.773Z,16.87
2022-09-14T18:44:12.055Z,16.84
2022-09-14T18:46:44.455Z,16.82
2022-09-14T18:49:12.796Z,16.43
2022-09-14T18:51:40.753Z,16.27
2022-09-14T18:54:13.090Z,15.99
2022-09-14T18:56:41.737Z,15.58
2022-09-14T18:59:15.533Z,15.44
2022-09-14T19:01:45.719Z,15.47
2022-09-14T19:04:15.652Z,15.59
2022-09-14T19:06:44.608Z,15.80
2022-09-14T19:09:12.785Z,15.81
2022-09-14T19:11:40.847Z,15.59
2022-09-14T19:14:10.521Z,15.29
2022-09-14T19:16:40.315Z,15.17
2022-09-14T19:19:11.368Z,15.31
2022-09-14T19:21:39.386Z,15.25
2022-09-14T19:24:09.051Z,15.44
2022-09-14T19:26:45.306Z,15.51
2022-09-14T19:29:15.109Z,15.52
2022-09-14T19:31:43.392Z,15.44
2022-09-14T19:34:13.085Z,15.17
2022-09-14T19:36:41.081Z,15.03
2022-09-14T19:39:09.101Z,14.72
2022-09-14T19:41:37.622Z,14.77
2022-09-14T19:44:06.918Z,14.92
2022-09-14T19:46:36.338Z,15.00
2022-09-14T19:49:04.422Z,15.08
2022-09-14T19:51:34.216Z,15.20
2022-09-14T19:54:02.270Z,15.32
2022-09-14T19:56:32.288Z,15.31
2022-09-14T19:59:01.929Z,15.29
2022-09-14T20:01:31.257Z,15.30
2022-09-14T20:03:59.847Z,15.10
2022-09-14T20:06:31.768Z,14.72
2022-09-14T20:09:04.727Z,14.91
2022-09-14T20:11:34.914Z,14.80
2022-09-14T20:14:05.424Z,14.73
2022-09-14T20:16:35.392Z,14.60
2022-09-14T20:19:07.111Z,14.64
2022-09-14T20:21:36.122Z,14.93
2022-09-14T20:24:16.636Z,15.00
2022-09-14T20:26:46.015Z,14.84
2022-09-14T20:29:14.468Z,14.89
2022-09-14T20:31:42.511Z,14.84
2022-09-14T20:34:10.629Z,14.75
2022-09-14T20:36:38.909Z,14.56
2022-09-14T20:39:08.360Z,14.51
2022-09-14T20:41:36.930Z,14.45
2022-09-14T20:44:05.455Z,14.50
2022-09-14T20:46:36.023Z,14.39
2022-09-14T20:49:05.535Z,14.47
2022-09-14T20:51:33.620Z,14.43
2022-09-14T20:54:01.712Z,14.40
2022-09-14T20:56:32.743Z,14.25
2022-09-14T20:59:02.230Z,14.24
2022-09-14T21:01:31.831Z,14.22
2022-09-14T21:04:04.107Z,14.14
2022-09-14T21:06:32.653Z,14.14
2022-09-14T21:09:01.948Z,14.00
2022-09-14T21:11:31.569Z,13.98
2022-09-14T21:14:00.255Z,14.02
2022-09-14T21:16:30.336Z,14.25
2022-09-14T21:19:00.245Z,14.11
2022-09-14T21:21:28.643Z,14.25
2022-09-14T21:23:57.629Z,14.15
2022-09-14T21:26:26.281Z,13.99
2022-09-14T21:28:58.550Z,13.75
2022-09-14T21:31:29.924Z,13.84
2022-09-14T21:33:59.686Z,13.89
2022-09-14T21:36:29.057Z,13.76
2022-09-14T21:39:00.121Z,13.81
2022-09-14T21:41:29.397Z,13.91
2022-09-14T21:43:59.378Z,13.89
2022-09-14T21:46:27.772Z,13.79
2022-09-14T21:48:56.159Z,13.79
2022-09-14T21:51:26.348Z,13.77
2022-09-14T21:53:55.353Z,13.78
2022-09-14T21:56:24.890Z,13.86
2022-09-14T21:58:54.024Z,13.73
2022-09-14T22:01:24.047Z,13.94
2022-09-14T22:03:54.858Z,13.81
2022-09-14T22:06:23.826Z,13.82
2022-09-14T22:08:52.545Z,13.72
2022-09-14T22:11:24.420Z,13.68
2022-09-14T22:13:55.288Z,13.57
2022-09-14T22:16:25.903Z,13.63
2022-09-14T22:18:55.718Z,13.56
2022-09-14T22:21:24.791Z,13.54
2022-09-14T22:23:54.489Z,13.52
2022-09-14T22:26:23.002Z,13.75
2022-09-14T22:28:53.673Z,13.67
2022-09-14T22:31:24.403Z,13.68
2022-09-14T22:33:53.099Z,13.59
2022-09-14T22:36:24.502Z,13.63
2022-09-14T22:38:53.322Z,13.55
2022-09-14T22:41:26.729Z,13.61
2022-09-14T22:43:56.274Z,13.77
2022-09-14T22:46:26.306Z,13.87
2022-09-14T22:48:57.905Z,13.69
2022-09-14T22:51:30.239Z,13.84
2022-09-14T22:53:58.716Z,13.80
2022-09-14T22:56:28.631Z,13.81
2022-09-14T22:58:57.204Z,13.83
2022-09-14T23:01:33.430Z,13.63
2022-09-14T23:04:05.253Z,13.55
2022-09-14T23:06:41.107Z,13.67
2022-09-14T23:09:11.652Z,13.81
2022-09-14T23:11:40.273Z,13.82
2022-09-14T23:14:08.453Z,13.70
2022-09-14T23:16:39.652Z,13.67
2022-09-14T23:19:13.148Z,13.44
2022-09-14T23:21:46.039Z,13.52
2022-09-14T23:24:20.191Z,13.48
2022-09-14T23:26:51.109Z,13.60
2022-09-14T23:29:22.348Z,13.61
2022-09-14T23:31:52.317Z,13.47
2022-09-14T23:34:22.893Z,13.51
2022-09-14T23:36:51.115Z,13.71
2022-09-14T23:39:19.323Z,13.88
2022-09-14T23:41:48.923Z,13.78
2022-09-14T23:44:23.218Z,13.86
2022-09-14T23:46:59.614Z,13.88
2022-09-14T23:49:27.968Z,13.99
2022-09-14T23:51:56.192Z,13.97
2022-09-14T23:54:26.923Z,13.92
2022-09-14T23:56:56.393Z,13.85
2022-09-14T23:59:25.194Z,13.95
